sensor_id;sensor_type;location;lat;lon;timestamp;P1;durP1;ratioP1;P2;durP2;ratioP2
28357;SDS011;15605;48.114;11.522;2024-02-04T00:01:42;4.85;;;3.50;;
28357;SDS011;15605;48.114;11.522;2024-02-04T00:04:14;6.75;;;3.30;;
28357;SDS011;15605;48.114;11.522;2024-02-04T00:06:45;5.47;;;3.58;;
28357;SDS011;15605;48.114;11.522;2024-02-04T00:09:17;5.57;;;3.67;;
28357;SDS011;15605;48.114;11.522;2024-02-04T00:11:49;6.00;;;3.92;;
28357;SDS011;15605;48.114;11.522;2024-02-04T00:14:22;5.13;;;3.33;;
28357;SDS011;15605;48.114;11.522;2024-02-04T00:16:53;6.18;;;3.60;;
28357;SDS011;15605;48.114;11.522;2024-02-04T00:19:28;5.18;;;3.55;;
28357;SDS011;15605;48.114;11.522;2024-02-04T00:22:01;4.47;;;3.33;;
28357;SDS011;15605;48.114;11.522;2024-02-04T00:24:32;4.97;;;3.50;;
28357;SDS011;15605;48.114;11.522;2024-02-04T00:27:04;4.97;;;3.42;;
28357;SDS011;15605;48.114;11.522;2024-02-04T00:29:39;5.38;;;3.70;;
28357;SDS011;15605;48.114;11.522;2024-02-04T00:32:11;6.78;;;3.28;;
28357;SDS011;15605;48.114;11.522;2024-02-04T00:34:43;4.50;;;3.40;;
28357;SDS011;15605;48.114;11.522;2024-02-04T00:37:14;4.40;;;3.30;;
28357;SDS011;15605;48.114;11.522;2024-02-04T00:39:46;5.88;;;3.60;;
28357;SDS011;15605;48.114;11.522;2024-02-04T00:42:17;4.82;;;3.58;;
28357;SDS011;15605;48.114;11.522;2024-02-04T00:44:48;4.30;;;3.10;;
28357;SDS011;15605;48.114;11.522;2024-02-04T00:47:21;4.22;;;3.17;;
28357;SDS011;15605;48.114;11.522;2024-02-04T00:49:54;4.30;;;3.10;;
28357;SDS011;15605;48.114;11.522;2024-02-04T00:52:25;4.38;;;3.22;;
28357;SDS011;15605;48.114;11.522;2024-02-04T00:54:56;5.35;;;3.22;;
28357;SDS011;15605;48.114;11.522;2024-02-04T00:57:28;4.55;;;3.20;;
28357;SDS011;15605;48.114;11.522;2024-02-04T00:59:57;3.60;;;2.63;;
28357;SDS011;15605;48.114;11.522;2024-02-04T01:02:28;3.90;;;2.72;;
28357;SDS011;15605;48.114;11.522;2024-02-04T01:05:00;5.22;;;3.13;;
28357;SDS011;15605;48.114;11.522;2024-02-04T01:07:32;3.25;;;2.53;;
28357;SDS011;15605;48.114;11.522;2024-02-04T01:10:03;3.67;;;2.73;;
28357;SDS011;15605;48.114;11.522;2024-02-04T01:12:35;6.25;;;3.63;;
28357;SDS011;15605;48.114;11.522;2024-02-04T01:15:06;4.32;;;3.08;;
28357;SDS011;15605;48.114;11.522;2024-02-04T01:17:38;4.70;;;2.95;;
28357;SDS011;15605;48.114;11.522;2024-02-04T01:20:11;4.15;;;3.35;;
28357;SDS011;15605;48.114;11.522;2024-02-04T01:22:41;3.90;;;2.80;;
28357;SDS011;15605;48.114;11.522;2024-02-04T01:25:12;5.68;;;3.15;;
28357;SDS011;15605;48.114;11.522;2024-02-04T01:27:42;4.63;;;3.28;;
28357;SDS011;15605;48.114;11.522;2024-02-04T01:30:14;4.00;;;2.90;;
28357;SDS011;15605;48.114;11.522;2024-02-04T01:32:45;4.95;;;3.58;;
28357;SDS011;15605;48.114;11.522;2024-02-04T01:35:16;3.45;;;2.88;;
28357;SDS011;15605;48.114;11.522;2024-02-04T01:37:48;3.17;;;2.88;;
28357;SDS011;15605;48.114;11.522;2024-02-04T01:40:20;3.60;;;3.00;;
28357;SDS011;15605;48.114;11.522;2024-02-04T01:42:51;3.63;;;3.22;;
28357;SDS011;15605;48.114;11.522;2024-02-04T01:45:26;4.30;;;3.50;;
28357;SDS011;15605;48.114;11.522;2024-02-04T01:47:56;4.75;;;3.30;;
28357;SDS011;15605;48.114;11.522;2024-02-04T01:50:33;4.10;;;3.35;;
28357;SDS011;15605;48.114;11.522;2024-02-04T01:53:05;4.90;;;2.90;;
28357;SDS011;15605;48.114;11.522;2024-02-04T01:55:37;3.75;;;3.00;;
28357;SDS011;15605;48.114;11.522;2024-02-04T01:58:09;3.50;;;2.73;;
28357;SDS011;15605;48.114;11.522;2024-02-04T02:00:41;4.53;;;3.05;;
28357;SDS011;15605;48.114;11.522;2024-02-04T02:03:14;3.67;;;3.05;;
28357;SDS011;15605;48.114;11.522;2024-02-04T02:05:47;3.55;;;2.83;;
28357;SDS011;15605;48.114;11.522;2024-02-04T02:08:19;4.85;;;3.30;;
28357;SDS011;15605;48.114;11.522;2024-02-04T02:10:50;3.75;;;3.35;;
28357;SDS011;15605;48.114;11.522;2024-02-04T02:13:28;3.20;;;2.90;;
28357;SDS011;15605;48.114;11.522;2024-02-04T02:16:30;5.97;;;3.20;;
28357;SDS011;15605;48.114;11.522;2024-02-04T02:21:52;3.25;;;2.95;;
28357;SDS011;15605;48.114;11.522;2024-02-04T02:24:32;3.90;;;3.40;;
28357;SDS011;15605;48.114;11.522;2024-02-04T02:27:08;3.97;;;3.10;;
28357;SDS011;15605;48.114;11.522;2024-02-04T02:29:38;3.53;;;3.08;;
28357;SDS011;15605;48.114;11.522;2024-02-04T02:32:10;3.75;;;3.22;;
28357;SDS011;15605;48.114;11.522;2024-02-04T02:34:42;5.07;;;3.67;;
28357;SDS011;15605;48.114;11.522;2024-02-04T02:40:21;4.45;;;3.15;;
28357;SDS011;15605;48.114;11.522;2024-02-04T02:43:00;5.03;;;3.42;;
28357;SDS011;15605;48.114;11.522;2024-02-04T02:45:33;4.15;;;3.33;;
28357;SDS011;15605;48.114;11.522;2024-02-04T02:48:06;4.07;;;3.30;;
28357;SDS011;15605;48.114;11.522;2024-02-04T02:50:38;3.63;;;3.17;;
28357;SDS011;15605;48.114;11.522;2024-02-04T02:53:09;4.05;;;3.38;;
28357;SDS011;15605;48.114;11.522;2024-02-04T02:55:40;3.63;;;3.10;;
28357;SDS011;15605;48.114;11.522;2024-02-04T02:58:14;3.90;;;3.30;;
28357;SDS011;15605;48.114;11.522;2024-02-04T03:00:45;3.92;;;3.03;;
28357;SDS011;15605;48.114;11.522;2024-02-04T03:03:17;3.72;;;3.10;;
28357;SDS011;15605;48.114;11.522;2024-02-04T03:05:50;4.72;;;3.40;;
28357;SDS011;15605;48.114;11.522;2024-02-04T03:08:30;3.60;;;2.97;;
28357;SDS011;15605;48.114;11.522;2024-02-04T03:11:01;3.88;;;3.05;;
28357;SDS011;15605;48.114;11.522;2024-02-04T03:13:32;3.50;;;3.13;;
28357;SDS011;15605;48.114;11.522;2024-02-04T03:16:13;4.43;;;3.47;;
28357;SDS011;15605;48.114;11.522;2024-02-04T03:18:45;3.75;;;3.35;;
28357;SDS011;15605;48.114;11.522;2024-02-04T03:21:18;3.20;;;2.83;;
28357;SDS011;15605;48.114;11.522;2024-02-04T03:23:50;5.45;;;3.30;;
28357;SDS011;15605;48.114;11.522;2024-02-04T03:26:22;5.03;;;3.30;;
28357;SDS011;15605;48.114;11.522;2024-02-04T03:28:54;3.45;;;2.97;;
28357;SDS011;15605;48.114;11.522;2024-02-04T03:31:26;5.68;;;3.22;;
28357;SDS011;15605;48.114;11.522;2024-02-04T03:33:58;3.28;;;2.88;;
28357;SDS011;15605;48.114;11.522;2024-02-04T03:36:32;4.95;;;3.20;;
28357;SDS011;15605;48.114;11.522;2024-02-04T03:39:06;5.50;;;3.35;;
28357;SDS011;15605;48.114;11.522;2024-02-04T03:41:38;3.95;;;3.13;;
28357;SDS011;15605;48.114;11.522;2024-02-04T03:44:09;4.82;;;3.55;;
28357;SDS011;15605;48.114;11.522;2024-02-04T03:46:40;4.05;;;3.22;;
28357;SDS011;15605;48.114;11.522;2024-02-04T03:49:11;4.13;;;2.90;;
28357;SDS011;15605;48.114;11.522;2024-02-04T03:51:42;3.47;;;3.03;;
28357;SDS011;15605;48.114;11.522;2024-02-04T03:54:13;3.40;;;3.10;;
28357;SDS011;15605;48.114;11.522;2024-02-04T03:56:48;2.90;;;2.63;;
28357;SDS011;15605;48.114;11.522;2024-02-04T03:59:19;3.97;;;3.00;;
28357;SDS011;15605;48.114;11.522;2024-02-04T04:01:51;3.13;;;2.75;;
28357;SDS011;15605;48.114;11.522;2024-02-04T04:04:26;4.10;;;3.08;;
28357;SDS011;15605;48.114;11.522;2024-02-04T04:06:57;4.10;;;3.17;;
28357;SDS011;15605;48.114;11.522;2024-02-04T04:09:28;5.30;;;2.60;;
28357;SDS011;15605;48.114;11.522;2024-02-04T04:11:59;3.47;;;3.17;;
28357;SDS011;15605;48.114;11.522;2024-02-04T04:14:31;3.83;;;2.80;;
28357;SDS011;15605;48.114;11.522;2024-02-04T04:17:03;3.25;;;2.65;;
28357;SDS011;15605;48.114;11.522;2024-02-04T04:19:36;2.95;;;2.50;;
28357;SDS011;15605;48.114;11.522;2024-02-04T04:22:08;3.05;;;2.38;;
28357;SDS011;15605;48.114;11.522;2024-02-04T04:24:40;2.65;;;2.30;;
28357;SDS011;15605;48.114;11.522;2024-02-04T04:27:11;3.40;;;2.50;;
28357;SDS011;15605;48.114;11.522;2024-02-04T04:29:42;5.00;;;2.88;;
28357;SDS011;15605;48.114;11.522;2024-02-04T04:32:15;3.45;;;2.70;;
28357;SDS011;15605;48.114;11.522;2024-02-04T04:34:46;2.88;;;2.55;;
28357;SDS011;15605;48.114;11.522;2024-02-04T04:37:19;3.03;;;2.67;;
28357;SDS011;15605;48.114;11.522;2024-02-04T04:39:49;2.63;;;2.42;;
28357;SDS011;15605;48.114;11.522;2024-02-04T04:42:23;2.70;;;2.40;;
28357;SDS011;15605;48.114;11.522;2024-02-04T04:44:56;3.13;;;2.30;;
28357;SDS011;15605;48.114;11.522;2024-02-04T04:47:27;2.83;;;2.50;;
28357;SDS011;15605;48.114;11.522;2024-02-04T04:49:59;3.22;;;2.42;;
28357;SDS011;15605;48.114;11.522;2024-02-04T04:52:31;3.17;;;2.72;;
28357;SDS011;15605;48.114;11.522;2024-02-04T04:55:05;2.25;;;2.05;;
28357;SDS011;15605;48.114;11.522;2024-02-04T04:57:38;3.40;;;2.50;;
28357;SDS011;15605;48.114;11.522;2024-02-04T05:00:09;2.78;;;2.15;;
28357;SDS011;15605;48.114;11.522;2024-02-04T05:02:41;2.90;;;2.22;;
28357;SDS011;15605;48.114;11.522;2024-02-04T05:05:12;3.38;;;2.47;;
28357;SDS011;15605;48.114;11.522;2024-02-04T05:07:44;4.28;;;2.30;;
28357;SDS011;15605;48.114;11.522;2024-02-04T05:10:17;3.33;;;2.28;;
28357;SDS011;15605;48.114;11.522;2024-02-04T05:12:50;3.03;;;2.45;;
28357;SDS011;15605;48.114;11.522;2024-02-04T05:15:23;3.30;;;2.50;;
28357;SDS011;15605;48.114;11.522;2024-02-04T05:17:54;2.20;;;2.00;;
28357;SDS011;15605;48.114;11.522;2024-02-04T05:20:27;2.57;;;2.20;;
28357;SDS011;15605;48.114;11.522;2024-02-04T05:22:57;2.55;;;2.22;;
28357;SDS011;15605;48.114;11.522;2024-02-04T05:25:29;2.30;;;2.10;;
28357;SDS011;15605;48.114;11.522;2024-02-04T05:28:00;3.13;;;2.15;;
28357;SDS011;15605;48.114;11.522;2024-02-04T05:30:31;3.70;;;2.08;;
28357;SDS011;15605;48.114;11.522;2024-02-04T05:33:04;2.90;;;1.92;;
28357;SDS011;15605;48.114;11.522;2024-02-04T05:35:34;2.30;;;2.10;;
28357;SDS011;15605;48.114;11.522;2024-02-04T05:38:08;2.45;;;1.80;;
28357;SDS011;15605;48.114;11.522;2024-02-04T05:40:40;5.63;;;2.40;;
28357;SDS011;15605;48.114;11.522;2024-02-04T05:43:12;2.47;;;2.03;;
28357;SDS011;15605;48.114;11.522;2024-02-04T05:45:43;2.90;;;1.70;;
28357;SDS011;15605;48.114;11.522;2024-02-04T05:48:15;2.15;;;1.95;;
28357;SDS011;15605;48.114;11.522;2024-02-04T05:50:47;3.45;;;2.00;;
28357;SDS011;15605;48.114;11.522;2024-02-04T05:53:18;2.97;;;1.65;;
28357;SDS011;15605;48.114;11.522;2024-02-04T05:55:51;3.05;;;2.03;;
28357;SDS011;15605;48.114;11.522;2024-02-04T06:00:59;4.47;;;1.90;;
28357;SDS011;15605;48.114;11.522;2024-02-04T06:04:45;3.08;;;1.88;;
28357;SDS011;15605;48.114;11.522;2024-02-04T06:07:33;3.35;;;1.90;;
28357;SDS011;15605;48.114;11.522;2024-02-04T06:10:13;5.03;;;2.38;;
28357;SDS011;15605;48.114;11.522;2024-02-04T06:16:18;5.32;;;2.20;;
28357;SDS011;15605;48.114;11.522;2024-02-04T06:18:51;3.05;;;1.88;;
28357;SDS011;15605;48.114;11.522;2024-02-04T06:21:36;6.35;;;2.10;;
28357;SDS011;15605;48.114;11.522;2024-02-04T06:24:14;4.32;;;2.25;;
28357;SDS011;15605;48.114;11.522;2024-02-04T06:26:49;6.03;;;2.20;;
28357;SDS011;15605;48.114;11.522;2024-02-04T06:29:19;2.47;;;2.08;;
28357;SDS011;15605;48.114;11.522;2024-02-04T06:31:52;3.83;;;2.00;;
28357;SDS011;15605;48.114;11.522;2024-02-04T06:34:32;3.22;;;2.10;;
28357;SDS011;15605;48.114;11.522;2024-02-04T06:37:02;7.18;;;2.10;;
28357;SDS011;15605;48.114;11.522;2024-02-04T06:40:16;6.40;;;2.13;;
28357;SDS011;15605;48.114;11.522;2024-02-04T06:45:35;3.20;;;1.88;;
28357;SDS011;15605;48.114;11.522;2024-02-04T06:48:05;8.18;;;2.33;;
28357;SDS011;15605;48.114;11.522;2024-02-04T06:53:55;5.88;;;2.08;;
28357;SDS011;15605;48.114;11.522;2024-02-04T06:56:27;3.33;;;1.77;;
28357;SDS011;15605;48.114;11.522;2024-02-04T06:58:59;6.90;;;2.22;;
28357;SDS011;15605;48.114;11.522;2024-02-04T07:02:08;5.85;;;2.25;;
28357;SDS011;15605;48.114;11.522;2024-02-04T07:04:39;4.63;;;2.53;;
28357;SDS011;15605;48.114;11.522;2024-02-04T07:07:12;8.30;;;2.25;;
28357;SDS011;15605;48.114;11.522;2024-02-04T07:09:43;4.07;;;2.10;;
28357;SDS011;15605;48.114;11.522;2024-02-04T07:12:15;6.53;;;2.33;;
28357;SDS011;15605;48.114;11.522;2024-02-04T07:14:47;3.78;;;2.40;;
28357;SDS011;15605;48.114;11.522;2024-02-04T07:17:20;2.90;;;2.50;;
28357;SDS011;15605;48.114;11.522;2024-02-04T07:19:51;3.67;;;2.20;;
28357;SDS011;15605;48.114;11.522;2024-02-04T07:22:23;3.80;;;2.47;;
28357;SDS011;15605;48.114;11.522;2024-02-04T07:24:54;5.07;;;2.38;;
28357;SDS011;15605;48.114;11.522;2024-02-04T07:27:25;4.40;;;2.13;;
28357;SDS011;15605;48.114;11.522;2024-02-04T07:29:56;5.88;;;2.42;;
28357;SDS011;15605;48.114;11.522;2024-02-04T07:32:30;3.78;;;2.60;;
28357;SDS011;15605;48.114;11.522;2024-02-04T07:35:03;6.60;;;2.60;;
28357;SDS011;15605;48.114;11.522;2024-02-04T07:37:34;4.78;;;2.50;;
28357;SDS011;15605;48.114;11.522;2024-02-04T07:40:08;4.35;;;2.50;;
28357;SDS011;15605;48.114;11.522;2024-02-04T07:45:12;4.45;;;2.30;;
28357;SDS011;15605;48.114;11.522;2024-02-04T07:47:44;4.57;;;2.67;;
28357;SDS011;15605;48.114;11.522;2024-02-04T07:50:15;5.32;;;2.58;;
28357;SDS011;15605;48.114;11.522;2024-02-04T07:52:49;7.90;;;3.05;;
28357;SDS011;15605;48.114;11.522;2024-02-04T07:55:21;4.60;;;3.03;;
28357;SDS011;15605;48.114;11.522;2024-02-04T07:57:54;5.85;;;2.35;;
28357;SDS011;15605;48.114;11.522;2024-02-04T08:00:24;4.75;;;3.00;;
28357;SDS011;15605;48.114;11.522;2024-02-04T08:02:55;6.43;;;3.60;;
28357;SDS011;15605;48.114;11.522;2024-02-04T08:05:26;5.22;;;3.13;;
28357;SDS011;15605;48.114;11.522;2024-02-04T08:08:00;3.75;;;2.63;;
28357;SDS011;15605;48.114;11.522;2024-02-04T08:10:32;5.22;;;3.20;;
28357;SDS011;15605;48.114;11.522;2024-02-04T08:13:03;4.80;;;3.25;;
28357;SDS011;15605;48.114;11.522;2024-02-04T08:15:36;5.50;;;3.10;;
28357;SDS011;15605;48.114;11.522;2024-02-04T08:18:09;6.45;;;3.55;;
28357;SDS011;15605;48.114;11.522;2024-02-04T08:20:43;6.53;;;3.53;;
28357;SDS011;15605;48.114;11.522;2024-02-04T08:23:15;5.40;;;3.17;;
28357;SDS011;15605;48.114;11.522;2024-02-04T08:25:48;6.47;;;3.33;;
28357;SDS011;15605;48.114;11.522;2024-02-04T08:28:25;7.78;;;3.20;;
28357;SDS011;15605;48.114;11.522;2024-02-04T08:30:56;5.68;;;3.25;;
28357;SDS011;15605;48.114;11.522;2024-02-04T08:33:27;7.35;;;3.85;;
28357;SDS011;15605;48.114;11.522;2024-02-04T08:35:57;6.53;;;3.33;;
28357;SDS011;15605;48.114;11.522;2024-02-04T08:38:28;6.45;;;3.30;;
28357;SDS011;15605;48.114;11.522;2024-02-04T08:41:00;4.70;;;3.17;;
28357;SDS011;15605;48.114;11.522;2024-02-04T08:43:33;5.18;;;3.30;;
28357;SDS011;15605;48.114;11.522;2024-02-04T08:46:04;7.45;;;3.30;;
28357;SDS011;15605;48.114;11.522;2024-02-04T08:48:37;5.32;;;2.80;;
28357;SDS011;15605;48.114;11.522;2024-02-04T08:51:12;4.13;;;2.92;;
28357;SDS011;15605;48.114;11.522;2024-02-04T08:53:46;8.65;;;3.38;;
28357;SDS011;15605;48.114;11.522;2024-02-04T08:56:20;5.25;;;3.38;;
28357;SDS011;15605;48.114;11.522;2024-02-04T08:58:51;5.82;;;3.30;;
28357;SDS011;15605;48.114;11.522;2024-02-04T09:01:21;5.78;;;3.47;;
28357;SDS011;15605;48.114;11.522;2024-02-04T09:03:51;4.68;;;3.00;;
28357;SDS011;15605;48.114;11.522;2024-02-04T09:06:24;6.63;;;3.50;;
28357;SDS011;15605;48.114;11.522;2024-02-04T09:08:54;6.68;;;3.47;;
28357;SDS011;15605;48.114;11.522;2024-02-04T09:11:26;5.80;;;3.58;;
28357;SDS011;15605;48.114;11.522;2024-02-04T09:13:57;5.07;;;3.08;;
28357;SDS011;15605;48.114;11.522;2024-02-04T09:16:27;6.03;;;3.50;;
28357;SDS011;15605;48.114;11.522;2024-02-04T09:19:00;13.80;;;3.85;;
28357;SDS011;15605;48.114;11.522;2024-02-04T09:21:32;7.43;;;3.30;;
28357;SDS011;15605;48.114;11.522;2024-02-04T09:24:03;7.57;;;3.20;;
28357;SDS011;15605;48.114;11.522;2024-02-04T09:26:35;5.25;;;3.42;;
28357;SDS011;15605;48.114;11.522;2024-02-04T09:29:06;5.05;;;3.25;;
28357;SDS011;15605;48.114;11.522;2024-02-04T09:31:40;7.00;;;3.15;;
28357;SDS011;15605;48.114;11.522;2024-02-04T09:34:12;7.15;;;3.30;;
28357;SDS011;15605;48.114;11.522;2024-02-04T09:36:44;5.00;;;2.95;;
28357;SDS011;15605;48.114;11.522;2024-02-04T09:39:15;8.43;;;3.60;;
28357;SDS011;15605;48.114;11.522;2024-02-04T09:41:49;7.50;;;3.20;;
28357;SDS011;15605;48.114;11.522;2024-02-04T09:44:19;4.47;;;3.15;;
28357;SDS011;15605;48.114;11.522;2024-02-04T09:46:53;5.75;;;3.15;;
28357;SDS011;15605;48.114;11.522;2024-02-04T09:49:27;4.07;;;2.97;;
28357;SDS011;15605;48.114;11.522;2024-02-04T09:51:59;7.35;;;3.40;;
28357;SDS011;15605;48.114;11.522;2024-02-04T09:54:41;6.75;;;3.15;;
28357;SDS011;15605;48.114;11.522;2024-02-04T09:57:21;5.35;;;3.08;;
28357;SDS011;15605;48.114;11.522;2024-02-04T09:59:56;5.85;;;3.35;;
28357;SDS011;15605;48.114;11.522;2024-02-04T10:02:27;5.47;;;3.15;;
28357;SDS011;15605;48.114;11.522;2024-02-04T10:05:00;9.02;;;3.88;;
28357;SDS011;15605;48.114;11.522;2024-02-04T10:07:30;5.80;;;3.25;;
28357;SDS011;15605;48.114;11.522;2024-02-04T10:10:02;5.97;;;3.50;;
28357;SDS011;15605;48.114;11.522;2024-02-04T10:12:34;7.38;;;3.58;;
28357;SDS011;15605;48.114;11.522;2024-02-04T10:15:06;7.75;;;3.85;;
28357;SDS011;15605;48.114;11.522;2024-02-04T10:17:41;5.22;;;3.42;;
28357;SDS011;15605;48.114;11.522;2024-02-04T10:20:19;11.77;;;3.65;;
28357;SDS011;15605;48.114;11.522;2024-02-04T10:22:50;5.82;;;3.63;;
28357;SDS011;15605;48.114;11.522;2024-02-04T10:25:20;5.50;;;3.00;;
28357;SDS011;15605;48.114;11.522;2024-02-04T10:27:51;5.63;;;3.10;;
28357;SDS011;15605;48.114;11.522;2024-02-04T10:30:25;6.28;;;3.35;;
28357;SDS011;15605;48.114;11.522;2024-02-04T10:32:57;5.25;;;3.30;;
28357;SDS011;15605;48.114;11.522;2024-02-04T10:35:27;5.53;;;3.08;;
28357;SDS011;15605;48.114;11.522;2024-02-04T10:37:58;5.40;;;3.00;;
28357;SDS011;15605;48.114;11.522;2024-02-04T10:40:28;6.80;;;3.25;;
28357;SDS011;15605;48.114;11.522;2024-02-04T10:43:00;6.70;;;3.78;;
28357;SDS011;15605;48.114;11.522;2024-02-04T10:45:33;5.10;;;3.42;;
28357;SDS011;15605;48.114;11.522;2024-02-04T10:48:11;5.35;;;3.35;;
28357;SDS011;15605;48.114;11.522;2024-02-04T10:50:46;6.47;;;3.47;;
28357;SDS011;15605;48.114;11.522;2024-02-04T10:53:19;4.40;;;3.28;;
28357;SDS011;15605;48.114;11.522;2024-02-04T10:55:54;6.03;;;3.13;;
28357;SDS011;15605;48.114;11.522;2024-02-04T10:58:34;4.18;;;3.17;;
28357;SDS011;15605;48.114;11.522;2024-02-04T11:01:06;6.50;;;3.17;;
28357;SDS011;15605;48.114;11.522;2024-02-04T11:03:39;4.88;;;3.05;;
28357;SDS011;15605;48.114;11.522;2024-02-04T11:06:10;9.73;;;3.22;;
28357;SDS011;15605;48.114;11.522;2024-02-04T11:08:43;6.75;;;2.85;;
28357;SDS011;15605;48.114;11.522;2024-02-04T11:11:15;6.90;;;3.15;;
28357;SDS011;15605;48.114;11.522;2024-02-04T11:13:46;7.10;;;3.50;;
28357;SDS011;15605;48.114;11.522;2024-02-04T11:22:14;4.85;;;2.88;;
28357;SDS011;15605;48.114;11.522;2024-02-04T11:25:11;5.72;;;3.17;;
28357;SDS011;15605;48.114;11.522;2024-02-04T11:28:05;5.40;;;2.90;;
28357;SDS011;15605;48.114;11.522;2024-02-04T11:30:36;3.65;;;2.65;;
28357;SDS011;15605;48.114;11.522;2024-02-04T11:33:09;7.00;;;2.80;;
28357;SDS011;15605;48.114;11.522;2024-02-04T11:38:11;4.97;;;2.95;;
28357;SDS011;15605;48.114;11.522;2024-02-04T11:40:47;5.20;;;3.25;;
28357;SDS011;15605;48.114;11.522;2024-02-04T11:43:22;5.03;;;2.38;;
28357;SDS011;15605;48.114;11.522;2024-02-04T11:45:53;9.77;;;3.00;;
28357;SDS011;15605;48.114;11.522;2024-02-04T11:48:28;5.55;;;2.83;;
28357;SDS011;15605;48.114;11.522;2024-02-04T11:51:01;6.50;;;2.88;;
28357;SDS011;15605;48.114;11.522;2024-02-04T11:53:33;5.88;;;2.80;;
28357;SDS011;15605;48.114;11.522;2024-02-04T11:56:03;3.88;;;2.60;;
28357;SDS011;15605;48.114;11.522;2024-02-04T11:58:34;4.78;;;3.15;;
28357;SDS011;15605;48.114;11.522;2024-02-04T12:01:05;4.80;;;3.40;;
28357;SDS011;15605;48.114;11.522;2024-02-04T12:03:42;3.53;;;2.60;;
28357;SDS011;15605;48.114;11.522;2024-02-04T12:06:13;5.20;;;2.58;;
28357;SDS011;15605;48.114;11.522;2024-02-04T12:08:44;7.97;;;2.60;;
28357;SDS011;15605;48.114;11.522;2024-02-04T12:11:16;4.35;;;2.35;;
28357;SDS011;15605;48.114;11.522;2024-02-04T12:16:48;4.97;;;2.50;;
28357;SDS011;15605;48.114;11.522;2024-02-04T12:19:19;5.07;;;2.28;;
28357;SDS011;15605;48.114;11.522;2024-02-04T12:21:52;3.33;;;1.90;;
28357;SDS011;15605;48.114;11.522;2024-02-04T12:24:23;4.60;;;2.67;;
28357;SDS011;15605;48.114;11.522;2024-02-04T12:26:53;3.42;;;2.35;;
28357;SDS011;15605;48.114;11.522;2024-02-04T12:29:23;5.55;;;2.20;;
28357;SDS011;15605;48.114;11.522;2024-02-04T12:31:59;8.35;;;2.58;;
28357;SDS011;15605;48.114;11.522;2024-02-04T12:34:30;6.78;;;2.58;;
28357;SDS011;15605;48.114;11.522;2024-02-04T12:37:02;6.03;;;2.42;;
28357;SDS011;15605;48.114;11.522;2024-02-04T12:39:35;5.80;;;2.50;;
28357;SDS011;15605;48.114;11.522;2024-02-04T12:42:08;5.05;;;2.72;;
28357;SDS011;15605;48.114;11.522;2024-02-04T12:44:40;3.80;;;2.42;;
28357;SDS011;15605;48.114;11.522;2024-02-04T12:47:11;8.10;;;2.45;;
28357;SDS011;15605;48.114;11.522;2024-02-04T12:49:44;8.75;;;2.60;;
28357;SDS011;15605;48.114;11.522;2024-02-04T12:52:19;5.78;;;2.60;;
28357;SDS011;15605;48.114;11.522;2024-02-04T12:54:50;4.05;;;2.10;;
28357;SDS011;15605;48.114;11.522;2024-02-04T12:57:22;7.75;;;2.15;;
28357;SDS011;15605;48.114;11.522;2024-02-04T13:00:03;3.15;;;2.03;;
28357;SDS011;15605;48.114;11.522;2024-02-04T13:02:36;3.42;;;2.00;;
28357;SDS011;15605;48.114;11.522;2024-02-04T13:05:07;3.83;;;2.08;;
28357;SDS011;15605;48.114;11.522;2024-02-04T13:07:38;6.88;;;2.63;;
28357;SDS011;15605;48.114;11.522;2024-02-04T13:10:09;5.95;;;2.05;;
28357;SDS011;15605;48.114;11.522;2024-02-04T13:12:44;3.97;;;2.20;;
28357;SDS011;15605;48.114;11.522;2024-02-04T13:15:31;3.58;;;2.28;;
28357;SDS011;15605;48.114;11.522;2024-02-04T13:18:07;4.93;;;2.50;;
28357;SDS011;15605;48.114;11.522;2024-02-04T13:20:44;7.63;;;2.28;;
28357;SDS011;15605;48.114;11.522;2024-02-04T13:23:14;3.90;;;2.13;;
28357;SDS011;15605;48.114;11.522;2024-02-04T13:25:47;2.88;;;1.88;;
28357;SDS011;15605;48.114;11.522;2024-02-04T13:28:20;3.72;;;2.47;;
28357;SDS011;15605;48.114;11.522;2024-02-04T13:30:50;4.47;;;2.17;;
28357;SDS011;15605;48.114;11.522;2024-02-04T13:33:22;5.68;;;1.77;;
28357;SDS011;15605;48.114;11.522;2024-02-04T13:35:57;3.95;;;2.08;;
28357;SDS011;15605;48.114;11.522;2024-02-04T13:38:28;5.70;;;1.70;;
28357;SDS011;15605;48.114;11.522;2024-02-04T13:40:59;3.45;;;2.00;;
28357;SDS011;15605;48.114;11.522;2024-02-04T13:43:32;7.22;;;1.80;;
28357;SDS011;15605;48.114;11.522;2024-02-04T13:46:17;3.70;;;1.98;;
28357;SDS011;15605;48.114;11.522;2024-02-04T13:48:48;2.35;;;1.80;;
28357;SDS011;15605;48.114;11.522;2024-02-04T13:51:21;5.18;;;1.92;;
28357;SDS011;15605;48.114;11.522;2024-02-04T13:53:55;3.60;;;2.03;;
28357;SDS011;15605;48.114;11.522;2024-02-04T13:56:27;4.18;;;1.65;;
28357;SDS011;15605;48.114;11.522;2024-02-04T13:58:58;4.03;;;1.90;;
28357;SDS011;15605;48.114;11.522;2024-02-04T14:01:29;3.03;;;1.75;;
28357;SDS011;15605;48.114;11.522;2024-02-04T14:04:03;2.35;;;1.77;;
28357;SDS011;15605;48.114;11.522;2024-02-04T14:06:35;6.30;;;2.03;;
28357;SDS011;15605;48.114;11.522;2024-02-04T14:09:07;2.65;;;1.77;;
28357;SDS011;15605;48.114;11.522;2024-02-04T14:14:11;3.63;;;2.00;;
28357;SDS011;15605;48.114;11.522;2024-02-04T14:16:41;5.95;;;2.60;;
28357;SDS011;15605;48.114;11.522;2024-02-04T14:19:12;4.32;;;1.77;;
28357;SDS011;15605;48.114;11.522;2024-02-04T14:21:43;3.67;;;1.73;;
28357;SDS011;15605;48.114;11.522;2024-02-04T14:24:14;2.40;;;1.90;;
28357;SDS011;15605;48.114;11.522;2024-02-04T14:26:45;3.08;;;1.38;;
28357;SDS011;15605;48.114;11.522;2024-02-04T14:29:16;3.80;;;1.70;;
28357;SDS011;15605;48.114;11.522;2024-02-04T14:31:46;3.17;;;2.10;;
28357;SDS011;15605;48.114;11.522;2024-02-04T14:34:17;2.67;;;1.67;;
28357;SDS011;15605;48.114;11.522;2024-02-04T14:36:50;3.63;;;1.40;;
28357;SDS011;15605;48.114;11.522;2024-02-04T14:39:21;3.28;;;1.88;;
28357;SDS011;15605;48.114;11.522;2024-02-04T14:41:52;2.55;;;1.58;;
28357;SDS011;15605;48.114;11.522;2024-02-04T14:44:24;2.78;;;1.50;;
28357;SDS011;15605;48.114;11.522;2024-02-04T14:46:58;3.53;;;1.48;;
28357;SDS011;15605;48.114;11.522;2024-02-04T14:49:32;4.32;;;1.50;;
28357;SDS011;15605;48.114;11.522;2024-02-04T14:52:07;5.40;;;2.20;;
28357;SDS011;15605;48.114;11.522;2024-02-04T14:54:37;8.93;;;2.15;;
28357;SDS011;15605;48.114;11.522;2024-02-04T14:57:12;4.75;;;1.73;;
28357;SDS011;15605;48.114;11.522;2024-02-04T14:59:47;7.30;;;2.53;;
28357;SDS011;15605;48.114;11.522;2024-02-04T15:02:18;4.40;;;1.85;;
28357;SDS011;15605;48.114;11.522;2024-02-04T15:04:51;3.92;;;1.50;;
28357;SDS011;15605;48.114;11.522;2024-02-04T15:07:25;5.82;;;1.42;;
28357;SDS011;15605;48.114;11.522;2024-02-04T15:10:01;23.30;;;3.50;;
28357;SDS011;15605;48.114;11.522;2024-02-04T15:12:35;12.85;;;3.10;;
28357;SDS011;15605;48.114;11.522;2024-02-04T15:15:07;14.75;;;2.35;;
28357;SDS011;15605;48.114;11.522;2024-02-04T15:17:44;13.68;;;3.00;;
28357;SDS011;15605;48.114;11.522;2024-02-04T15:20:18;7.57;;;2.13;;
28357;SDS011;15605;48.114;11.522;2024-02-04T15:22:52;10.85;;;2.13;;
28357;SDS011;15605;48.114;11.522;2024-02-04T15:25:24;11.80;;;1.92;;
28357;SDS011;15605;48.114;11.522;2024-02-04T15:27:59;5.70;;;1.83;;
28357;SDS011;15605;48.114;11.522;2024-02-04T15:30:33;8.00;;;1.85;;
28357;SDS011;15605;48.114;11.522;2024-02-04T15:33:09;8.07;;;1.90;;
28357;SDS011;15605;48.114;11.522;2024-02-04T15:35:47;8.77;;;1.70;;
28357;SDS011;15605;48.114;11.522;2024-02-04T15:38:20;6.07;;;1.67;;
28357;SDS011;15605;48.114;11.522;2024-02-04T15:40:56;11.32;;;1.80;;
28357;SDS011;15605;48.114;11.522;2024-02-04T15:43:36;3.67;;;1.65;;